<?xml version="1.0" encoding="UTF-8" standalone="no" ?>
<gpx xmlns="http://www.topografix.com/GPX/1/1" xmlns:xsi="http://www.w3.org/2001/XMLSchema-instance" xsi:schemaLocation="http://www.topografix.com/GPX/1/1 http://www.topografix.com/GPX/1/1/gpx.xsd" version="1.1" creator="VisuGPX - https://www.visugpx.com">
  <metadata>
    <name>Bornes-Esery-Arbusigny-ChapelleRambaud-Cruseilles</name>
  </metadata>
  <trk>
    <name><![CDATA[10496154-70k Bornes]]></name>
    <trkseg>
      <trkpt lat="46.19007" lon="6.2332">
        <ele>435</ele>
        <time>2021-03-17T16:41:28Z</time>
      </trkpt>
      <trkpt lat="46.19028" lon="6.23327">
        <ele>435</ele>
        <time>2021-03-17T16:41:32Z</time>
      </trkpt>
      <trkpt lat="46.19031" lon="6.23306">
        <ele>435</ele>
        <time>2021-03-17T16:41:35Z</time>
      </trkpt>
      <trkpt lat="46.19007" lon="6.23303">
        <ele>435</ele>
        <time>2021-03-17T16:41:40Z</time>
      </trkpt>
      <trkpt lat="46.18975" lon="6.23315">
        <ele>435</ele>
        <time>2021-03-17T16:41:47Z</time>
      </trkpt>
      <trkpt lat="46.18678" lon="6.23187">
        <ele>419</ele>
        <time>2021-03-17T16:42:43Z</time>
      </trkpt>
      <trkpt lat="46.18571" lon="6.23057">
        <ele>417</ele>
        <time>2021-03-17T16:43:08Z</time>
      </trkpt>
      <trkpt lat="46.18524" lon="6.23041">
        <ele>414</ele>
        <time>2021-03-17T16:43:16Z</time>
      </trkpt>
      <trkpt lat="46.18413" lon="6.23086">
        <ele>409</ele>
        <time>2021-03-17T16:43:37Z</time>
      </trkpt>
      <trkpt lat="46.18287" lon="6.2306">
        <ele>403</ele>
        <time>2021-03-17T16:44:00Z</time>
      </trkpt>
      <trkpt lat="46.18192" lon="6.22988">
        <ele>403</ele>
        <time>2021-03-17T16:44:19Z</time>
      </trkpt>
      <trkpt lat="46.18049" lon="6.22967">
        <ele>407</ele>
        <time>2021-03-17T16:44:45Z</time>
      </trkpt>
      <trkpt lat="46.18028" lon="6.23001">
        <ele>409</ele>
        <time>2021-03-17T16:44:51Z</time>
      </trkpt>
      <trkpt lat="46.17962" lon="6.23101">
        <ele>416</ele>
        <time>2021-03-17T16:45:08Z</time>
      </trkpt>
      <trkpt lat="46.17878" lon="6.23343">
        <ele>419</ele>
        <time>2021-03-17T16:45:42Z</time>
      </trkpt>
      <trkpt lat="46.17793" lon="6.23446">
        <ele>423</ele>
        <time>2021-03-17T16:46:01Z</time>
      </trkpt>
      <trkpt lat="46.17724" lon="6.23497">
        <ele>422</ele>
        <time>2021-03-17T16:46:15Z</time>
      </trkpt>
      <trkpt lat="46.177" lon="6.23471">
        <ele>434</ele>
        <time>2021-03-17T16:46:21Z</time>
      </trkpt>
      <trkpt lat="46.17658" lon="6.23524">
        <ele>430</ele>
        <time>2021-03-17T16:46:31Z</time>
      </trkpt>
      <trkpt lat="46.17491" lon="6.23664">
        <ele>435</ele>
        <time>2021-03-17T16:47:06Z</time>
      </trkpt>
      <trkpt lat="46.17332" lon="6.23894">
        <ele>438</ele>
        <time>2021-03-17T16:47:46Z</time>
      </trkpt>
      <trkpt lat="46.17216" lon="6.23989">
        <ele>442</ele>
        <time>2021-03-17T16:48:10Z</time>
      </trkpt>
      <trkpt lat="46.17047" lon="6.24047">
        <ele>448</ele>
        <time>2021-03-17T16:48:41Z</time>
      </trkpt>
      <trkpt lat="46.16872" lon="6.24058">
        <ele>458</ele>
        <time>2021-03-17T16:49:12Z</time>
      </trkpt>
      <trkpt lat="46.16802" lon="6.24152">
        <ele>456</ele>
        <time>2021-03-17T16:49:29Z</time>
      </trkpt>
      <trkpt lat="46.16766" lon="6.24168">
        <ele>455</ele>
        <time>2021-03-17T16:49:36Z</time>
      </trkpt>
      <trkpt lat="46.16628" lon="6.24086">
        <ele>463</ele>
        <time>2021-03-17T16:50:03Z</time>
      </trkpt>
      <trkpt lat="46.16453" lon="6.2404">
        <ele>463</ele>
        <time>2021-03-17T16:50:35Z</time>
      </trkpt>
      <trkpt lat="46.16325" lon="6.24002">
        <ele>462</ele>
        <time>2021-03-17T16:50:58Z</time>
      </trkpt>
      <trkpt lat="46.16218" lon="6.23928">
        <ele>456</ele>
        <time>2021-03-17T16:51:19Z</time>
      </trkpt>
      <trkpt lat="46.16189" lon="6.23946">
        <ele>449</ele>
        <time>2021-03-17T16:51:25Z</time>
      </trkpt>
      <trkpt lat="46.16169" lon="6.2412">
        <ele>449</ele>
        <time>2021-03-17T16:51:47Z</time>
      </trkpt>
      <trkpt lat="46.16048" lon="6.24237">
        <ele>458</ele>
        <time>2021-03-17T16:52:13Z</time>
      </trkpt>
      <trkpt lat="46.15962" lon="6.24256">
        <ele>461</ele>
        <time>2021-03-17T16:52:29Z</time>
      </trkpt>
      <trkpt lat="46.15935" lon="6.24234">
        <ele>465</ele>
        <time>2021-03-17T16:52:35Z</time>
      </trkpt>
      <trkpt lat="46.15756" lon="6.2437">
        <ele>474</ele>
        <time>2021-03-17T16:53:11Z</time>
      </trkpt>
      <trkpt lat="46.15711" lon="6.24365">
        <ele>481</ele>
        <time>2021-03-17T16:53:19Z</time>
      </trkpt>
      <trkpt lat="46.15684" lon="6.24309">
        <ele>490</ele>
        <time>2021-03-17T16:53:28Z</time>
      </trkpt>
      <trkpt lat="46.15679" lon="6.23861">
        <ele>514</ele>
        <time>2021-03-17T16:54:24Z</time>
      </trkpt>
      <trkpt lat="46.15714" lon="6.23778">
        <ele>518</ele>
        <time>2021-03-17T16:54:36Z</time>
      </trkpt>
      <trkpt lat="46.15741" lon="6.23664">
        <ele>523</ele>
        <time>2021-03-17T16:54:52Z</time>
      </trkpt>
      <trkpt lat="46.15701" lon="6.23657">
        <ele>528</ele>
        <time>2021-03-17T16:55:00Z</time>
      </trkpt>
      <trkpt lat="46.1566" lon="6.23717">
        <ele>530</ele>
        <time>2021-03-17T16:55:10Z</time>
      </trkpt>
      <trkpt lat="46.15548" lon="6.23821">
        <ele>542</ele>
        <time>2021-03-17T16:55:34Z</time>
      </trkpt>
      <trkpt lat="46.1548" lon="6.2387">
        <ele>555</ele>
        <time>2021-03-17T16:55:48Z</time>
      </trkpt>
      <trkpt lat="46.15402" lon="6.23974">
        <ele>566</ele>
        <time>2021-03-17T16:56:07Z</time>
      </trkpt>
      <trkpt lat="46.15341" lon="6.24001">
        <ele>570</ele>
        <time>2021-03-17T16:56:18Z</time>
      </trkpt>
      <trkpt lat="46.15225" lon="6.24129">
        <ele>568</ele>
        <time>2021-03-17T16:56:45Z</time>
      </trkpt>
      <trkpt lat="46.15" lon="6.24036">
        <ele>593</ele>
        <time>2021-03-17T16:57:27Z</time>
      </trkpt>
      <trkpt lat="46.14886" lon="6.23976">
        <ele>591</ele>
        <time>2021-03-17T16:57:49Z</time>
      </trkpt>
      <trkpt lat="46.14803" lon="6.23741">
        <ele>602</ele>
        <time>2021-03-17T16:58:22Z</time>
      </trkpt>
      <trkpt lat="46.14757" lon="6.23679">
        <ele>605</ele>
        <time>2021-03-17T16:58:33Z</time>
      </trkpt>
      <trkpt lat="46.14621" lon="6.23671">
        <ele>609</ele>
        <time>2021-03-17T16:58:58Z</time>
      </trkpt>
      <trkpt lat="46.14486" lon="6.23674">
        <ele>609</ele>
        <time>2021-03-17T16:59:22Z</time>
      </trkpt>
      <trkpt lat="46.14411" lon="6.23729">
        <ele>608</ele>
        <time>2021-03-17T16:59:39Z</time>
      </trkpt>
      <trkpt lat="46.14279" lon="6.23856">
        <ele>606</ele>
        <time>2021-03-17T17:00:07Z</time>
      </trkpt>
      <trkpt lat="46.14227" lon="6.23829">
        <ele>607</ele>
        <time>2021-03-17T17:00:17Z</time>
      </trkpt>
      <trkpt lat="46.14" lon="6.23783">
        <ele>608</ele>
        <time>2021-03-17T17:00:58Z</time>
      </trkpt>
      <trkpt lat="46.13842" lon="6.23801">
        <ele>606</ele>
        <time>2021-03-17T17:01:26Z</time>
      </trkpt>
      <trkpt lat="46.13707" lon="6.23819">
        <ele>604</ele>
        <time>2021-03-17T17:01:50Z</time>
      </trkpt>
      <trkpt lat="46.13489" lon="6.23724">
        <ele>612</ele>
        <time>2021-03-17T17:02:31Z</time>
      </trkpt>
      <trkpt lat="46.1335" lon="6.23706">
        <ele>618</ele>
        <time>2021-03-17T17:02:56Z</time>
      </trkpt>
      <trkpt lat="46.13239" lon="6.23744">
        <ele>618</ele>
        <time>2021-03-17T17:03:17Z</time>
      </trkpt>
      <trkpt lat="46.13189" lon="6.23801">
        <ele>616</ele>
        <time>2021-03-17T17:03:29Z</time>
      </trkpt>
      <trkpt lat="46.1311" lon="6.2425">
        <ele>603</ele>
        <time>2021-03-17T17:04:26Z</time>
      </trkpt>
      <trkpt lat="46.13133" lon="6.24391">
        <ele>607</ele>
        <time>2021-03-17T17:04:44Z</time>
      </trkpt>
      <trkpt lat="46.13302" lon="6.2451">
        <ele>598</ele>
        <time>2021-03-17T17:05:18Z</time>
      </trkpt>
      <trkpt lat="46.13343" lon="6.24576">
        <ele>594</ele>
        <time>2021-03-17T17:05:29Z</time>
      </trkpt>
      <trkpt lat="46.13354" lon="6.24733">
        <ele>594</ele>
        <time>2021-03-17T17:05:48Z</time>
      </trkpt>
      <trkpt lat="46.13395" lon="6.24863">
        <ele>590</ele>
        <time>2021-03-17T17:06:06Z</time>
      </trkpt>
      <trkpt lat="46.13428" lon="6.24911">
        <ele>585.8</ele>
      </trkpt>
      <trkpt lat="46.13471" lon="6.2487">
        <ele>582.1</ele>
      </trkpt>
      <trkpt lat="46.13503" lon="6.24861">
        <ele>578.7</ele>
      </trkpt>
      <trkpt lat="46.13526" lon="6.24893">
        <ele>575.8</ele>
      </trkpt>
      <trkpt lat="46.13498" lon="6.25031">
        <ele>570.6</ele>
      </trkpt>
      <trkpt lat="46.13471" lon="6.25141">
        <ele>564.6</ele>
      </trkpt>
      <trkpt lat="46.13426" lon="6.25353">
        <ele>552</ele>
        <time>2021-03-17T17:07:23Z</time>
      </trkpt>
      <trkpt lat="46.1327" lon="6.25576">
        <ele>536</ele>
        <time>2021-03-17T17:08:02Z</time>
      </trkpt>
      <trkpt lat="46.13257" lon="6.25631">
        <ele>532</ele>
        <time>2021-03-17T17:08:10Z</time>
      </trkpt>
      <trkpt lat="46.13279" lon="6.25666">
        <ele>528</ele>
        <time>2021-03-17T17:08:16Z</time>
      </trkpt>
      <trkpt lat="46.13503" lon="6.25637">
        <ele>515</ele>
        <time>2021-03-17T17:08:56Z</time>
      </trkpt>
      <trkpt lat="46.13566" lon="6.25592">
        <ele>513</ele>
        <time>2021-03-17T17:09:09Z</time>
      </trkpt>
      <trkpt lat="46.13581" lon="6.25629">
        <ele>507</ele>
        <time>2021-03-17T17:09:15Z</time>
      </trkpt>
      <trkpt lat="46.13463" lon="6.25812">
        <ele>500</ele>
        <time>2021-03-17T17:09:46Z</time>
      </trkpt>
      <trkpt lat="46.1347" lon="6.25862">
        <ele>497</ele>
        <time>2021-03-17T17:09:52Z</time>
      </trkpt>
      <trkpt lat="46.13398" lon="6.25966">
        <ele>496</ele>
        <time>2021-03-17T17:10:11Z</time>
      </trkpt>
      <trkpt lat="46.13262" lon="6.25997">
        <ele>496</ele>
        <time>2021-03-17T17:10:36Z</time>
      </trkpt>
      <trkpt lat="46.13222" lon="6.26055">
        <ele>490</ele>
        <time>2021-03-17T17:10:47Z</time>
      </trkpt>
      <trkpt lat="46.13082" lon="6.26149">
        <ele>481</ele>
        <time>2021-03-17T17:11:14Z</time>
      </trkpt>
      <trkpt lat="46.13055" lon="6.26179">
        <ele>480</ele>
        <time>2021-03-17T17:11:22Z</time>
      </trkpt>
      <trkpt lat="46.12984" lon="6.2613">
        <ele>488</ele>
        <time>2021-03-17T17:11:36Z</time>
      </trkpt>
      <trkpt lat="46.12953" lon="6.26051">
        <ele>496</ele>
        <time>2021-03-17T17:11:48Z</time>
      </trkpt>
      <trkpt lat="46.12875" lon="6.25982">
        <ele>500</ele>
        <time>2021-03-17T17:12:09Z</time>
      </trkpt>
      <trkpt lat="46.12859" lon="6.25974">
        <ele>501</ele>
        <time>2021-03-17T17:12:12Z</time>
      </trkpt>
      <trkpt lat="46.12769" lon="6.26092">
        <ele>502</ele>
        <time>2021-03-17T17:12:34Z</time>
      </trkpt>
      <trkpt lat="46.12656" lon="6.26081">
        <ele>505</ele>
        <time>2021-03-17T17:12:54Z</time>
      </trkpt>
      <trkpt lat="46.12618" lon="6.25983">
        <ele>509</ele>
        <time>2021-03-17T17:13:08Z</time>
      </trkpt>
      <trkpt lat="46.12585" lon="6.25821">
        <ele>526</ele>
        <time>2021-03-17T17:13:29Z</time>
      </trkpt>
      <trkpt lat="46.12643" lon="6.25762">
        <ele>530</ele>
        <time>2021-03-17T17:13:43Z</time>
      </trkpt>
      <trkpt lat="46.12693" lon="6.25651">
        <ele>539</ele>
        <time>2021-03-17T17:13:59Z</time>
      </trkpt>
      <trkpt lat="46.12702" lon="6.25503">
        <ele>549</ele>
        <time>2021-03-17T17:14:17Z</time>
      </trkpt>
      <trkpt lat="46.12744" lon="6.25359">
        <ele>566</ele>
        <time>2021-03-17T17:14:37Z</time>
      </trkpt>
      <trkpt lat="46.12737" lon="6.25318">
        <ele>572</ele>
        <time>2021-03-17T17:14:42Z</time>
      </trkpt>
      <trkpt lat="46.12654" lon="6.25243">
        <ele>577</ele>
        <time>2021-03-17T17:15:00Z</time>
      </trkpt>
      <trkpt lat="46.1262" lon="6.25162">
        <ele>583</ele>
        <time>2021-03-17T17:15:12Z</time>
      </trkpt>
      <trkpt lat="46.12638" lon="6.25058">
        <ele>592</ele>
        <time>2021-03-17T17:15:26Z</time>
      </trkpt>
      <trkpt lat="46.12601" lon="6.24931">
        <ele>602</ele>
        <time>2021-03-17T17:15:44Z</time>
      </trkpt>
      <trkpt lat="46.12609" lon="6.24765">
        <ele>615</ele>
        <time>2021-03-17T17:16:05Z</time>
      </trkpt>
      <trkpt lat="46.12596" lon="6.24674">
        <ele>621</ele>
        <time>2021-03-17T17:16:16Z</time>
      </trkpt>
      <trkpt lat="46.12557" lon="6.24586">
        <ele>631</ele>
        <time>2021-03-17T17:16:30Z</time>
      </trkpt>
      <trkpt lat="46.12569" lon="6.24537">
        <ele>637</ele>
        <time>2021-03-17T17:16:36Z</time>
      </trkpt>
      <trkpt lat="46.12644" lon="6.24466">
        <ele>646</ele>
        <time>2021-03-17T17:16:53Z</time>
      </trkpt>
      <trkpt lat="46.12618" lon="6.24426">
        <ele>651</ele>
        <time>2021-03-17T17:17:01Z</time>
      </trkpt>
      <trkpt lat="46.12548" lon="6.24409">
        <ele>655</ele>
        <time>2021-03-17T17:17:14Z</time>
      </trkpt>
      <trkpt lat="46.12554" lon="6.24358">
        <ele>657</ele>
        <time>2021-03-17T17:17:22Z</time>
      </trkpt>
      <trkpt lat="46.12553" lon="6.24307">
        <ele>659</ele>
        <time>2021-03-17T17:17:28Z</time>
      </trkpt>
      <trkpt lat="46.12548" lon="6.24248">
        <ele>661</ele>
        <time>2021-03-17T17:17:36Z</time>
      </trkpt>
      <trkpt lat="46.12434" lon="6.24107">
        <ele>667</ele>
        <time>2021-03-17T17:18:03Z</time>
      </trkpt>
      <trkpt lat="46.12392" lon="6.24027">
        <ele>671</ele>
        <time>2021-03-17T17:18:15Z</time>
      </trkpt>
      <trkpt lat="46.12372" lon="6.23917">
        <ele>676</ele>
        <time>2021-03-17T17:18:29Z</time>
      </trkpt>
      <trkpt lat="46.1234" lon="6.23895">
        <ele>681</ele>
        <time>2021-03-17T17:18:36Z</time>
      </trkpt>
      <trkpt lat="46.12248" lon="6.23908">
        <ele>681</ele>
        <time>2021-03-17T17:18:53Z</time>
      </trkpt>
      <trkpt lat="46.12186" lon="6.23833">
        <ele>690</ele>
        <time>2021-03-17T17:19:07Z</time>
      </trkpt>
      <trkpt lat="46.12139" lon="6.23711">
        <ele>694</ele>
        <time>2021-03-17T17:19:25Z</time>
      </trkpt>
      <trkpt lat="46.12016" lon="6.23564">
        <ele>704</ele>
        <time>2021-03-17T17:19:54Z</time>
      </trkpt>
      <trkpt lat="46.11782" lon="6.23159">
        <ele>741</ele>
        <time>2021-03-17T17:20:59Z</time>
      </trkpt>
      <trkpt lat="46.11646" lon="6.22929">
        <ele>746</ele>
        <time>2021-03-17T17:21:37Z</time>
      </trkpt>
      <trkpt lat="46.11609" lon="6.22647">
        <ele>772</ele>
        <time>2021-03-17T17:22:13Z</time>
      </trkpt>
      <trkpt lat="46.11667" lon="6.22234">
        <ele>784</ele>
        <time>2021-03-17T17:23:05Z</time>
      </trkpt>
      <trkpt lat="46.11664" lon="6.21961">
        <ele>788</ele>
        <time>2021-03-17T17:23:39Z</time>
      </trkpt>
      <trkpt lat="46.11767" lon="6.21651">
        <ele>782</ele>
        <time>2021-03-17T17:24:22Z</time>
      </trkpt>
      <trkpt lat="46.11768" lon="6.21572">
        <ele>779</ele>
        <time>2021-03-17T17:24:32Z</time>
      </trkpt>
      <trkpt lat="46.11643" lon="6.21462">
        <ele>785</ele>
        <time>2021-03-17T17:24:59Z</time>
      </trkpt>
      <trkpt lat="46.11539" lon="6.21372">
        <ele>790</ele>
        <time>2021-03-17T17:25:20Z</time>
      </trkpt>
      <trkpt lat="46.11415" lon="6.21273">
        <ele>790</ele>
        <time>2021-03-17T17:25:46Z</time>
      </trkpt>
      <trkpt lat="46.11315" lon="6.21249">
        <ele>791</ele>
        <time>2021-03-17T17:26:04Z</time>
      </trkpt>
      <trkpt lat="46.11251" lon="6.21188">
        <ele>791</ele>
        <time>2021-03-17T17:26:19Z</time>
      </trkpt>
      <trkpt lat="46.11" lon="6.21188">
        <ele>816</ele>
        <time>2021-03-17T17:27:04Z</time>
      </trkpt>
      <trkpt lat="46.10888" lon="6.21305">
        <ele>825</ele>
        <time>2021-03-17T17:27:29Z</time>
      </trkpt>
      <trkpt lat="46.10541" lon="6.21392">
        <ele>837</ele>
        <time>2021-03-17T17:28:32Z</time>
      </trkpt>
      <trkpt lat="46.10305" lon="6.21481">
        <ele>850</ele>
        <time>2021-03-17T17:29:16Z</time>
      </trkpt>
      <trkpt lat="46.10133" lon="6.21489">
        <ele>851</ele>
        <time>2021-03-17T17:29:47Z</time>
      </trkpt>
      <trkpt lat="46.10026" lon="6.21544">
        <ele>852</ele>
        <time>2021-03-17T17:30:07Z</time>
      </trkpt>
      <trkpt lat="46.09915" lon="6.21578">
        <ele>858</ele>
        <time>2021-03-17T17:30:28Z</time>
      </trkpt>
      <trkpt lat="46.09784" lon="6.2175">
        <ele>852</ele>
        <time>2021-03-17T17:30:59Z</time>
      </trkpt>
      <trkpt lat="46.09582" lon="6.21932">
        <ele>831</ele>
        <time>2021-03-17T17:31:42Z</time>
      </trkpt>
      <trkpt lat="46.09504" lon="6.21949">
        <ele>827</ele>
        <time>2021-03-17T17:31:56Z</time>
      </trkpt>
      <trkpt lat="46.09391" lon="6.21882">
        <ele>826</ele>
        <time>2021-03-17T17:32:18Z</time>
      </trkpt>
      <trkpt lat="46.09268" lon="6.21819">
        <ele>829</ele>
        <time>2021-03-17T17:32:42Z</time>
      </trkpt>
      <trkpt lat="46.09212" lon="6.21903">
        <ele>826</ele>
        <time>2021-03-17T17:32:57Z</time>
      </trkpt>
      <trkpt lat="46.09178" lon="6.21886">
        <ele>829</ele>
        <time>2021-03-17T17:33:04Z</time>
      </trkpt>
      <trkpt lat="46.09107" lon="6.21881">
        <ele>827</ele>
        <time>2021-03-17T17:33:18Z</time>
      </trkpt>
      <trkpt lat="46.09015" lon="6.21813">
        <ele>824</ele>
        <time>2021-03-17T17:33:37Z</time>
      </trkpt>
      <trkpt lat="46.08844" lon="6.21772">
        <ele>812</ele>
        <time>2021-03-17T17:34:08Z</time>
      </trkpt>
      <trkpt lat="46.0872" lon="6.21702">
        <ele>812</ele>
        <time>2021-03-17T17:34:34Z</time>
      </trkpt>
      <trkpt lat="46.08652" lon="6.21803">
        <ele>802</ele>
        <time>2021-03-17T17:34:51Z</time>
      </trkpt>
      <trkpt lat="46.08565" lon="6.21901">
        <ele>801</ele>
        <time>2021-03-17T17:35:12Z</time>
      </trkpt>
      <trkpt lat="46.08502" lon="6.22173">
        <ele>802</ele>
        <time>2021-03-17T17:35:48Z</time>
      </trkpt>
      <trkpt lat="46.08477" lon="6.22401">
        <ele>801</ele>
        <time>2021-03-17T17:36:17Z</time>
      </trkpt>
      <trkpt lat="46.08377" lon="6.22578">
        <ele>806</ele>
        <time>2021-03-17T17:36:46Z</time>
      </trkpt>
      <trkpt lat="46.08386" lon="6.22703">
        <ele>805</ele>
        <time>2021-03-17T17:37:03Z</time>
      </trkpt>
      <trkpt lat="46.08331" lon="6.22871">
        <ele>807</ele>
        <time>2021-03-17T17:37:26Z</time>
      </trkpt>
      <trkpt lat="46.08351" lon="6.22929">
        <ele>809</ele>
        <time>2021-03-17T17:37:34Z</time>
      </trkpt>
      <trkpt lat="46.08378" lon="6.22963">
        <ele>810.2</ele>
      </trkpt>
      <trkpt lat="46.08419" lon="6.22954">
        <ele>807.1</ele>
      </trkpt>
      <trkpt lat="46.0845" lon="6.22938">
        <ele>804.4</ele>
      </trkpt>
      <trkpt lat="46.08484" lon="6.22928">
        <ele>801.7</ele>
      </trkpt>
      <trkpt lat="46.08547" lon="6.22865">
        <ele>798</ele>
        <time>2021-03-17T17:39:12Z</time>
      </trkpt>
      <trkpt lat="46.08646" lon="6.22876">
        <ele>798</ele>
        <time>2021-03-17T17:39:30Z</time>
      </trkpt>
      <trkpt lat="46.08731" lon="6.22875">
        <ele>797</ele>
        <time>2021-03-17T17:39:45Z</time>
      </trkpt>
      <trkpt lat="46.08865" lon="6.22974">
        <ele>795</ele>
        <time>2021-03-17T17:40:12Z</time>
      </trkpt>
      <trkpt lat="46.09001" lon="6.23023">
        <ele>791</ele>
        <time>2021-03-17T17:40:40Z</time>
      </trkpt>
      <trkpt lat="46.09078" lon="6.23046">
        <ele>786</ele>
        <time>2021-03-17T17:40:54Z</time>
      </trkpt>
      <trkpt lat="46.09203" lon="6.23216">
        <ele>790</ele>
        <time>2021-03-17T17:41:25Z</time>
      </trkpt>
      <trkpt lat="46.09383" lon="6.23367">
        <ele>783</ele>
        <time>2021-03-17T17:42:02Z</time>
      </trkpt>
      <trkpt lat="46.09574" lon="6.23603">
        <ele>780</ele>
        <time>2021-03-17T17:42:47Z</time>
      </trkpt>
      <trkpt lat="46.09599" lon="6.23618">
        <ele>779</ele>
        <time>2021-03-17T17:42:52Z</time>
      </trkpt>
      <trkpt lat="46.09766" lon="6.23635">
        <ele>771</ele>
        <time>2021-03-17T17:43:22Z</time>
      </trkpt>
      <trkpt lat="46.09951" lon="6.23804">
        <ele>771</ele>
        <time>2021-03-17T17:44:01Z</time>
      </trkpt>
      <trkpt lat="46.10042" lon="6.2386">
        <ele>769</ele>
        <time>2021-03-17T17:44:19Z</time>
      </trkpt>
      <trkpt lat="46.10156" lon="6.23962">
        <ele>763</ele>
        <time>2021-03-17T17:44:43Z</time>
      </trkpt>
      <trkpt lat="46.10447" lon="6.24118">
        <ele>749</ele>
        <time>2021-03-17T17:45:38Z</time>
      </trkpt>
      <trkpt lat="46.10531" lon="6.24165">
        <ele>748</ele>
        <time>2021-03-17T17:45:55Z</time>
      </trkpt>
      <trkpt lat="46.10758" lon="6.24267">
        <ele>733</ele>
        <time>2021-03-17T17:46:37Z</time>
      </trkpt>
      <trkpt lat="46.10809" lon="6.24391">
        <ele>729</ele>
        <time>2021-03-17T17:46:55Z</time>
      </trkpt>
      <trkpt lat="46.10822" lon="6.24515">
        <ele>725</ele>
        <time>2021-03-17T17:47:11Z</time>
      </trkpt>
      <trkpt lat="46.10802" lon="6.24842">
        <ele>718</ele>
        <time>2021-03-17T17:47:52Z</time>
      </trkpt>
      <trkpt lat="46.10822" lon="6.25147">
        <ele>706</ele>
        <time>2021-03-17T17:48:30Z</time>
      </trkpt>
      <trkpt lat="46.10855" lon="6.25302">
        <ele>699</ele>
        <time>2021-03-17T17:48:50Z</time>
      </trkpt>
      <trkpt lat="46.10811" lon="6.25612">
        <ele>688</ele>
        <time>2021-03-17T17:49:29Z</time>
      </trkpt>
      <trkpt lat="46.10726" lon="6.2595">
        <ele>687</ele>
        <time>2021-03-17T17:50:13Z</time>
      </trkpt>
      <trkpt lat="46.10645" lon="6.26086">
        <ele>680</ele>
        <time>2021-03-17T17:50:36Z</time>
      </trkpt>
      <trkpt lat="46.10572" lon="6.26236">
        <ele>663</ele>
        <time>2021-03-17T17:50:59Z</time>
      </trkpt>
      <trkpt lat="46.10466" lon="6.26346">
        <ele>661</ele>
        <time>2021-03-17T17:51:22Z</time>
      </trkpt>
      <trkpt lat="46.10298" lon="6.26415">
        <ele>674</ele>
        <time>2021-03-17T17:51:57Z</time>
      </trkpt>
      <trkpt lat="46.10146" lon="6.2643">
        <ele>695</ele>
        <time>2021-03-17T17:52:24Z</time>
      </trkpt>
      <trkpt lat="46.10075" lon="6.26476">
        <ele>693</ele>
        <time>2021-03-17T17:52:38Z</time>
      </trkpt>
      <trkpt lat="46.09924" lon="6.26438">
        <ele>701</ele>
        <time>2021-03-17T17:53:06Z</time>
      </trkpt>
      <trkpt lat="46.09669" lon="6.26239">
        <ele>716</ele>
        <time>2021-03-17T17:53:58Z</time>
      </trkpt>
      <trkpt lat="46.09561" lon="6.26193">
        <ele>732</ele>
        <time>2021-03-17T17:54:18Z</time>
      </trkpt>
      <trkpt lat="46.09531" lon="6.26118">
        <ele>739</ele>
        <time>2021-03-17T17:54:29Z</time>
      </trkpt>
      <trkpt lat="46.09596" lon="6.26111">
        <ele>738</ele>
        <time>2021-03-17T17:54:41Z</time>
      </trkpt>
      <trkpt lat="46.09676" lon="6.26062">
        <ele>747</ele>
        <time>2021-03-17T17:54:57Z</time>
      </trkpt>
      <trkpt lat="46.09779" lon="6.26016">
        <ele>754</ele>
        <time>2021-03-17T17:55:16Z</time>
      </trkpt>
      <trkpt lat="46.09833" lon="6.25888">
        <ele>769</ele>
        <time>2021-03-17T17:55:35Z</time>
      </trkpt>
      <trkpt lat="46.09812" lon="6.25875">
        <ele>772</ele>
        <time>2021-03-17T17:55:40Z</time>
      </trkpt>
      <trkpt lat="46.09738" lon="6.25902">
        <ele>775</ele>
        <time>2021-03-17T17:55:53Z</time>
      </trkpt>
      <trkpt lat="46.09611" lon="6.25688">
        <ele>799</ele>
        <time>2021-03-17T17:56:29Z</time>
      </trkpt>
      <trkpt lat="46.09531" lon="6.25478">
        <ele>817</ele>
        <time>2021-03-17T17:56:58Z</time>
      </trkpt>
      <trkpt lat="46.09289" lon="6.25152">
        <ele>843</ele>
        <time>2021-03-17T17:57:57Z</time>
      </trkpt>
      <trkpt lat="46.0913" lon="6.25022">
        <ele>857</ele>
        <time>2021-03-17T17:58:30Z</time>
      </trkpt>
      <trkpt lat="46.09076" lon="6.24884">
        <ele>859</ele>
        <time>2021-03-17T17:58:50Z</time>
      </trkpt>
      <trkpt lat="46.08951" lon="6.24673">
        <ele>874</ele>
        <time>2021-03-17T17:59:24Z</time>
      </trkpt>
      <trkpt lat="46.08809" lon="6.24577">
        <ele>881</ele>
        <time>2021-03-17T17:59:53Z</time>
      </trkpt>
      <trkpt lat="46.08711" lon="6.2445">
        <ele>882</ele>
        <time>2021-03-17T18:00:17Z</time>
      </trkpt>
      <trkpt lat="46.08492" lon="6.24375">
        <ele>885</ele>
        <time>2021-03-17T18:00:57Z</time>
      </trkpt>
      <trkpt lat="46.08308" lon="6.24341">
        <ele>890</ele>
        <time>2021-03-17T18:01:30Z</time>
      </trkpt>
      <trkpt lat="46.08086" lon="6.24298">
        <ele>897</ele>
        <time>2021-03-17T18:02:10Z</time>
      </trkpt>
      <trkpt lat="46.07812" lon="6.24351">
        <ele>906</ele>
        <time>2021-03-17T18:02:59Z</time>
      </trkpt>
      <trkpt lat="46.07696" lon="6.24332">
        <ele>915</ele>
        <time>2021-03-17T18:03:20Z</time>
      </trkpt>
      <trkpt lat="46.07664" lon="6.24291">
        <ele>922</ele>
        <time>2021-03-17T18:03:28Z</time>
      </trkpt>
      <trkpt lat="46.07656" lon="6.24041">
        <ele>930</ele>
        <time>2021-03-17T18:03:59Z</time>
      </trkpt>
      <trkpt lat="46.07612" lon="6.23999">
        <ele>928</ele>
        <time>2021-03-17T18:04:09Z</time>
      </trkpt>
      <trkpt lat="46.07317" lon="6.24016">
        <ele>944</ele>
        <time>2021-03-17T18:05:02Z</time>
      </trkpt>
      <trkpt lat="46.07192" lon="6.23991">
        <ele>947</ele>
        <time>2021-03-17T18:05:25Z</time>
      </trkpt>
      <trkpt lat="46.07143" lon="6.23921">
        <ele>947</ele>
        <time>2021-03-17T18:05:40Z</time>
      </trkpt>
      <trkpt lat="46.07141" lon="6.2382">
        <ele>944</ele>
        <time>2021-03-17T18:05:52Z</time>
      </trkpt>
      <trkpt lat="46.07062" lon="6.23714">
        <ele>943</ele>
        <time>2021-03-17T18:06:12Z</time>
      </trkpt>
      <trkpt lat="46.07016" lon="6.23617">
        <ele>940</ele>
        <time>2021-03-17T18:06:29Z</time>
      </trkpt>
      <trkpt lat="46.06916" lon="6.23707">
        <ele>942</ele>
        <time>2021-03-17T18:06:52Z</time>
      </trkpt>
      <trkpt lat="46.06784" lon="6.23626">
        <ele>941</ele>
        <time>2021-03-17T18:07:18Z</time>
      </trkpt>
      <trkpt lat="46.06711" lon="6.23449">
        <ele>936</ele>
        <time>2021-03-17T18:07:43Z</time>
      </trkpt>
      <trkpt lat="46.06498" lon="6.22994">
        <ele>928</ele>
        <time>2021-03-17T18:08:51Z</time>
      </trkpt>
      <trkpt lat="46.06348" lon="6.22722">
        <ele>927</ele>
        <time>2021-03-17T18:09:35Z</time>
      </trkpt>
      <trkpt lat="46.06173" lon="6.22623">
        <ele>915</ele>
        <time>2021-03-17T18:10:10Z</time>
      </trkpt>
      <trkpt lat="46.05954" lon="6.22709">
        <ele>902</ele>
        <time>2021-03-17T18:10:51Z</time>
      </trkpt>
      <trkpt lat="46.05888" lon="6.22587">
        <ele>900</ele>
        <time>2021-03-17T18:11:11Z</time>
      </trkpt>
      <trkpt lat="46.05834" lon="6.22349">
        <ele>893</ele>
        <time>2021-03-17T18:11:42Z</time>
      </trkpt>
      <trkpt lat="46.05781" lon="6.22403">
        <ele>884</ele>
        <time>2021-03-17T18:11:55Z</time>
      </trkpt>
      <trkpt lat="46.05743" lon="6.22577">
        <ele>876</ele>
        <time>2021-03-17T18:12:18Z</time>
      </trkpt>
      <trkpt lat="46.05684" lon="6.22667">
        <ele>870</ele>
        <time>2021-03-17T18:12:34Z</time>
      </trkpt>
      <trkpt lat="46.05404" lon="6.22602">
        <ele>852</ele>
        <time>2021-03-17T18:13:25Z</time>
      </trkpt>
      <trkpt lat="46.05294" lon="6.2263">
        <ele>850</ele>
        <time>2021-03-17T18:13:45Z</time>
      </trkpt>
      <trkpt lat="46.05252" lon="6.22151">
        <ele>855</ele>
        <time>2021-03-17T18:15:00Z</time>
      </trkpt>
      <trkpt lat="46.05301" lon="6.21961">
        <ele>867</ele>
        <time>2021-03-17T18:15:26Z</time>
      </trkpt>
      <trkpt lat="46.05246" lon="6.21775">
        <ele>872</ele>
        <time>2021-03-17T18:15:51Z</time>
      </trkpt>
      <trkpt lat="46.05214" lon="6.21328">
        <ele>875</ele>
        <time>2021-03-17T18:16:47Z</time>
      </trkpt>
      <trkpt lat="46.052" lon="6.21146">
        <ele>877</ele>
        <time>2021-03-17T18:17:09Z</time>
      </trkpt>
      <trkpt lat="46.05331" lon="6.20958">
        <ele>889</ele>
        <time>2021-03-17T18:17:42Z</time>
      </trkpt>
      <trkpt lat="46.05352" lon="6.20908">
        <ele>890</ele>
        <time>2021-03-17T18:17:50Z</time>
      </trkpt>
      <trkpt lat="46.05293" lon="6.20833">
        <ele>890</ele>
        <time>2021-03-17T18:18:04Z</time>
      </trkpt>
      <trkpt lat="46.05168" lon="6.20502">
        <ele>897</ele>
        <time>2021-03-17T18:18:51Z</time>
      </trkpt>
      <trkpt lat="46.05125" lon="6.20193">
        <ele>899</ele>
        <time>2021-03-17T18:19:30Z</time>
      </trkpt>
      <trkpt lat="46.05143" lon="6.20008">
        <ele>897</ele>
        <time>2021-03-17T18:19:53Z</time>
      </trkpt>
      <trkpt lat="46.0511" lon="6.19872">
        <ele>894</ele>
        <time>2021-03-17T18:20:11Z</time>
      </trkpt>
      <trkpt lat="46.05041" lon="6.19638">
        <ele>890</ele>
        <time>2021-03-17T18:20:43Z</time>
      </trkpt>
      <trkpt lat="46.04994" lon="6.19496">
        <ele>881</ele>
        <time>2021-03-17T18:21:03Z</time>
      </trkpt>
      <trkpt lat="46.04849" lon="6.19309">
        <ele>873</ele>
        <time>2021-03-17T18:21:37Z</time>
      </trkpt>
      <trkpt lat="46.04814" lon="6.19325">
        <ele>872</ele>
        <time>2021-03-17T18:21:44Z</time>
      </trkpt>
      <trkpt lat="46.04721" lon="6.19453">
        <ele>869</ele>
        <time>2021-03-17T18:22:10Z</time>
      </trkpt>
      <trkpt lat="46.0468" lon="6.1939">
        <ele>861</ele>
        <time>2021-03-17T18:22:21Z</time>
      </trkpt>
      <trkpt lat="46.04635" lon="6.19081">
        <ele>854</ele>
        <time>2021-03-17T18:23:00Z</time>
      </trkpt>
      <trkpt lat="46.04643" lon="6.18896">
        <ele>847</ele>
        <time>2021-03-17T18:23:23Z</time>
      </trkpt>
      <trkpt lat="46.04596" lon="6.18783">
        <ele>842</ele>
        <time>2021-03-17T18:23:40Z</time>
      </trkpt>
      <trkpt lat="46.0455" lon="6.18492">
        <ele>836</ele>
        <time>2021-03-17T18:24:17Z</time>
      </trkpt>
      <trkpt lat="46.04586" lon="6.18439">
        <ele>831</ele>
        <time>2021-03-17T18:24:26Z</time>
      </trkpt>
      <trkpt lat="46.04634" lon="6.18408">
        <ele>828</ele>
        <time>2021-03-17T18:24:36Z</time>
      </trkpt>
      <trkpt lat="46.04677" lon="6.1833">
        <ele>822</ele>
        <time>2021-03-17T18:24:49Z</time>
      </trkpt>
      <trkpt lat="46.04691" lon="6.18316">
        <ele>822</ele>
        <time>2021-03-17T18:24:52Z</time>
      </trkpt>
      <trkpt lat="46.04721" lon="6.18269">
        <ele>820</ele>
        <time>2021-03-17T18:25:01Z</time>
      </trkpt>
      <trkpt lat="46.04819" lon="6.1816">
        <ele>816</ele>
        <time>2021-03-17T18:25:24Z</time>
      </trkpt>
      <trkpt lat="46.04908" lon="6.18103">
        <ele>815</ele>
        <time>2021-03-17T18:25:42Z</time>
      </trkpt>
      <trkpt lat="46.04925" lon="6.18062">
        <ele>814</ele>
        <time>2021-03-17T18:25:49Z</time>
      </trkpt>
      <trkpt lat="46.04872" lon="6.1798">
        <ele>813</ele>
        <time>2021-03-17T18:26:03Z</time>
      </trkpt>
      <trkpt lat="46.04899" lon="6.17878">
        <ele>812</ele>
        <time>2021-03-17T18:26:17Z</time>
      </trkpt>
      <trkpt lat="46.04935" lon="6.17746">
        <ele>810</ele>
        <time>2021-03-17T18:26:34Z</time>
      </trkpt>
      <trkpt lat="46.05008" lon="6.17661">
        <ele>811</ele>
        <time>2021-03-17T18:26:51Z</time>
      </trkpt>
      <trkpt lat="46.05113" lon="6.17488">
        <ele>808</ele>
        <time>2021-03-17T18:27:20Z</time>
      </trkpt>
      <trkpt lat="46.05284" lon="6.17335">
        <ele>799</ele>
        <time>2021-03-17T18:27:56Z</time>
      </trkpt>
      <trkpt lat="46.05341" lon="6.17262">
        <ele>797</ele>
        <time>2021-03-17T18:28:10Z</time>
      </trkpt>
      <trkpt lat="46.05331" lon="6.17131">
        <ele>792</ele>
        <time>2021-03-17T18:28:26Z</time>
      </trkpt>
      <trkpt lat="46.05297" lon="6.17092">
        <ele>790</ele>
        <time>2021-03-17T18:28:34Z</time>
      </trkpt>
      <trkpt lat="46.05102" lon="6.16967">
        <ele>780</ele>
        <time>2021-03-17T18:29:13Z</time>
      </trkpt>
      <trkpt lat="46.05064" lon="6.16837">
        <ele>774</ele>
        <time>2021-03-17T18:29:30Z</time>
      </trkpt>
      <trkpt lat="46.05134" lon="6.16757">
        <ele>765</ele>
        <time>2021-03-17T18:29:47Z</time>
      </trkpt>
      <trkpt lat="46.05209" lon="6.16598">
        <ele>756</ele>
        <time>2021-03-17T18:30:11Z</time>
      </trkpt>
      <trkpt lat="46.05207" lon="6.16522">
        <ele>754</ele>
        <time>2021-03-17T18:30:21Z</time>
      </trkpt>
      <trkpt lat="46.05073" lon="6.16228">
        <ele>737</ele>
        <time>2021-03-17T18:31:04Z</time>
      </trkpt>
      <trkpt lat="46.04955" lon="6.16113">
        <ele>732</ele>
        <time>2021-03-17T18:31:30Z</time>
      </trkpt>
      <trkpt lat="46.0499" lon="6.16001">
        <ele>721</ele>
        <time>2021-03-17T18:31:46Z</time>
      </trkpt>
      <trkpt lat="46.05044" lon="6.15985">
        <ele>714</ele>
        <time>2021-03-17T18:31:57Z</time>
      </trkpt>
      <trkpt lat="46.05041" lon="6.15925">
        <ele>711</ele>
        <time>2021-03-17T18:32:07Z</time>
      </trkpt>
      <trkpt lat="46.05003" lon="6.15853">
        <ele>709</ele>
        <time>2021-03-17T18:32:18Z</time>
      </trkpt>
      <trkpt lat="46.05098" lon="6.15788">
        <ele>703</ele>
        <time>2021-03-17T18:32:42Z</time>
      </trkpt>
      <trkpt lat="46.05163" lon="6.15772">
        <ele>703</ele>
        <time>2021-03-17T18:32:54Z</time>
      </trkpt>
      <trkpt lat="46.05192" lon="6.15692">
        <ele>698</ele>
        <time>2021-03-17T18:33:06Z</time>
      </trkpt>
      <trkpt lat="46.05155" lon="6.15499">
        <ele>691</ele>
        <time>2021-03-17T18:33:31Z</time>
      </trkpt>
      <trkpt lat="46.05163" lon="6.15444">
        <ele>687</ele>
        <time>2021-03-17T18:33:38Z</time>
      </trkpt>
      <trkpt lat="46.05248" lon="6.15401">
        <ele>684</ele>
        <time>2021-03-17T18:33:55Z</time>
      </trkpt>
      <trkpt lat="46.05254" lon="6.15322">
        <ele>680</ele>
        <time>2021-03-17T18:34:05Z</time>
      </trkpt>
      <trkpt lat="46.05159" lon="6.15112">
        <ele>688</ele>
        <time>2021-03-17T18:34:36Z</time>
      </trkpt>
      <trkpt lat="46.05097" lon="6.15046">
        <ele>692</ele>
        <time>2021-03-17T18:34:50Z</time>
      </trkpt>
      <trkpt lat="46.05008" lon="6.15013">
        <ele>694</ele>
        <time>2021-03-17T18:35:07Z</time>
      </trkpt>
      <trkpt lat="46.04962" lon="6.14887">
        <ele>698</ele>
        <time>2021-03-17T18:35:24Z</time>
      </trkpt>
      <trkpt lat="46.04857" lon="6.14741">
        <ele>705</ele>
        <time>2021-03-17T18:35:51Z</time>
      </trkpt>
      <trkpt lat="46.04788" lon="6.14584">
        <ele>709</ele>
        <time>2021-03-17T18:36:14Z</time>
      </trkpt>
      <trkpt lat="46.04821" lon="6.14508">
        <ele>712</ele>
        <time>2021-03-17T18:36:25Z</time>
      </trkpt>
      <trkpt lat="46.04849" lon="6.1423">
        <ele>717</ele>
        <time>2021-03-17T18:37:00Z</time>
      </trkpt>
      <trkpt lat="46.04888" lon="6.14119">
        <ele>721</ele>
        <time>2021-03-17T18:37:15Z</time>
      </trkpt>
      <trkpt lat="46.0487" lon="6.1397">
        <ele>717</ele>
        <time>2021-03-17T18:37:34Z</time>
      </trkpt>
      <trkpt lat="46.04941" lon="6.13859">
        <ele>722</ele>
        <time>2021-03-17T18:37:54Z</time>
      </trkpt>
      <trkpt lat="46.05036" lon="6.13837">
        <ele>728</ele>
        <time>2021-03-17T18:38:11Z</time>
      </trkpt>
      <trkpt lat="46.05115" lon="6.13921">
        <ele>747</ele>
        <time>2021-03-17T18:38:29Z</time>
      </trkpt>
      <trkpt lat="46.05154" lon="6.13933">
        <ele>745</ele>
        <time>2021-03-17T18:38:37Z</time>
      </trkpt>
      <trkpt lat="46.05157" lon="6.137">
        <ele>738</ele>
        <time>2021-03-17T18:39:06Z</time>
      </trkpt>
      <trkpt lat="46.05136" lon="6.13575">
        <ele>737</ele>
        <time>2021-03-17T18:39:22Z</time>
      </trkpt>
      <trkpt lat="46.05165" lon="6.13492">
        <ele>740</ele>
        <time>2021-03-17T18:39:34Z</time>
      </trkpt>
      <trkpt lat="46.05312" lon="6.13327">
        <ele>756</ele>
        <time>2021-03-17T18:40:07Z</time>
      </trkpt>
      <trkpt lat="46.05308" lon="6.13254">
        <ele>762</ele>
        <time>2021-03-17T18:40:17Z</time>
      </trkpt>
      <trkpt lat="46.05238" lon="6.13168">
        <ele>772</ele>
        <time>2021-03-17T18:40:34Z</time>
      </trkpt>
      <trkpt lat="46.0521" lon="6.13197">
        <ele>767</ele>
        <time>2021-03-17T18:40:40Z</time>
      </trkpt>
      <trkpt lat="46.05123" lon="6.1316">
        <ele>770</ele>
        <time>2021-03-17T18:40:57Z</time>
      </trkpt>
      <trkpt lat="46.05038" lon="6.12995">
        <ele>791</ele>
        <time>2021-03-17T18:41:23Z</time>
      </trkpt>
      <trkpt lat="46.05011" lon="6.1298">
        <ele>794</ele>
        <time>2021-03-17T18:41:28Z</time>
      </trkpt>
      <trkpt lat="46.04991" lon="6.13013">
        <ele>791</ele>
        <time>2021-03-17T18:41:34Z</time>
      </trkpt>
      <trkpt lat="46.04991" lon="6.13081">
        <ele>784</ele>
        <time>2021-03-17T18:41:42Z</time>
      </trkpt>
      <trkpt lat="46.04974" lon="6.131">
        <ele>784</ele>
        <time>2021-03-17T18:41:46Z</time>
      </trkpt>
      <trkpt lat="46.04773" lon="6.13067">
        <ele>799</ele>
        <time>2021-03-17T18:42:22Z</time>
      </trkpt>
      <trkpt lat="46.04529" lon="6.12842">
        <ele>789</ele>
        <time>2021-03-17T18:43:14Z</time>
      </trkpt>
      <trkpt lat="46.04398" lon="6.12723">
        <ele>788</ele>
        <time>2021-03-17T18:43:42Z</time>
      </trkpt>
      <trkpt lat="46.0421" lon="6.12502">
        <ele>788</ele>
        <time>2021-03-17T18:44:25Z</time>
      </trkpt>
      <trkpt lat="46.04146" lon="6.12428">
        <ele>789.1</ele>
      </trkpt>
      <trkpt lat="46.04112" lon="6.12375">
        <ele>787.3</ele>
      </trkpt>
      <trkpt lat="46.04098" lon="6.12318">
        <ele>786</ele>
        <time>2021-03-17T18:44:56Z</time>
      </trkpt>
      <trkpt lat="46.04083" lon="6.12174">
        <ele>789.5</ele>
      </trkpt>
      <trkpt lat="46.04087" lon="6.12156">
        <ele>792.1</ele>
      </trkpt>
      <trkpt lat="46.04112" lon="6.12154">
        <ele>795</ele>
        <time>2021-03-17T18:47:23Z</time>
      </trkpt>
      <trkpt lat="46.04144" lon="6.12205">
        <ele>794.2</ele>
      </trkpt>
      <trkpt lat="46.04159" lon="6.12301">
        <ele>793</ele>
        <time>2021-03-17T18:47:44Z</time>
      </trkpt>
      <trkpt lat="46.04177" lon="6.12345">
        <ele>795.4</ele>
      </trkpt>
      <trkpt lat="46.04209" lon="6.12377">
        <ele>798</ele>
        <time>2021-03-17T18:47:57Z</time>
      </trkpt>
      <trkpt lat="46.04265" lon="6.12382">
        <ele>803.2</ele>
      </trkpt>
      <trkpt lat="46.0432" lon="6.12368">
        <ele>805</ele>
        <time>2021-03-17T18:48:17Z</time>
      </trkpt>
      <trkpt lat="46.04417" lon="6.12376">
        <ele>807.9</ele>
      </trkpt>
      <trkpt lat="46.04465" lon="6.1238">
        <ele>811.4</ele>
      </trkpt>
      <trkpt lat="46.04516" lon="6.12401">
        <ele>814</ele>
        <time>2021-03-17T18:48:53Z</time>
      </trkpt>
      <trkpt lat="46.046" lon="6.12538">
        <ele>820</ele>
        <time>2021-03-17T18:49:15Z</time>
      </trkpt>
      <trkpt lat="46.04666" lon="6.12593">
        <ele>827</ele>
        <time>2021-03-17T18:49:29Z</time>
      </trkpt>
      <trkpt lat="46.04794" lon="6.12592">
        <ele>830</ele>
        <time>2021-03-17T18:49:52Z</time>
      </trkpt>
      <trkpt lat="46.0497" lon="6.12517">
        <ele>844</ele>
        <time>2021-03-17T18:50:25Z</time>
      </trkpt>
      <trkpt lat="46.05063" lon="6.12539">
        <ele>858</ele>
        <time>2021-03-17T18:50:42Z</time>
      </trkpt>
      <trkpt lat="46.05285" lon="6.12721">
        <ele>859</ele>
        <time>2021-03-17T18:51:28Z</time>
      </trkpt>
      <trkpt lat="46.05415" lon="6.12824">
        <ele>865</ele>
        <time>2021-03-17T18:51:54Z</time>
      </trkpt>
      <trkpt lat="46.05501" lon="6.12924">
        <ele>864</ele>
        <time>2021-03-17T18:52:14Z</time>
      </trkpt>
      <trkpt lat="46.05733" lon="6.12983">
        <ele>880</ele>
        <time>2021-03-17T18:52:57Z</time>
      </trkpt>
      <trkpt lat="46.05766" lon="6.12996">
        <ele>884</ele>
        <time>2021-03-17T18:53:03Z</time>
      </trkpt>
      <trkpt lat="46.058" lon="6.13102">
        <ele>877</ele>
        <time>2021-03-17T18:53:17Z</time>
      </trkpt>
      <trkpt lat="46.05858" lon="6.13153">
        <ele>881</ele>
        <time>2021-03-17T18:53:30Z</time>
      </trkpt>
      <trkpt lat="46.0592" lon="6.13147">
        <ele>889</ele>
        <time>2021-03-17T18:53:41Z</time>
      </trkpt>
      <trkpt lat="46.06049" lon="6.13178">
        <ele>884</ele>
        <time>2021-03-17T18:54:05Z</time>
      </trkpt>
      <trkpt lat="46.06149" lon="6.13153">
        <ele>890</ele>
        <time>2021-03-17T18:54:24Z</time>
      </trkpt>
      <trkpt lat="46.06187" lon="6.13201">
        <ele>885</ele>
        <time>2021-03-17T18:54:33Z</time>
      </trkpt>
      <trkpt lat="46.06278" lon="6.13298">
        <ele>882</ele>
        <time>2021-03-17T18:54:54Z</time>
      </trkpt>
      <trkpt lat="46.06323" lon="6.13397">
        <ele>877</ele>
        <time>2021-03-17T18:55:10Z</time>
      </trkpt>
      <trkpt lat="46.06395" lon="6.13482">
        <ele>878</ele>
        <time>2021-03-17T18:55:27Z</time>
      </trkpt>
      <trkpt lat="46.06419" lon="6.13571">
        <ele>877</ele>
        <time>2021-03-17T18:55:39Z</time>
      </trkpt>
      <trkpt lat="46.06403" lon="6.13667">
        <ele>878</ele>
        <time>2021-03-17T18:55:51Z</time>
      </trkpt>
      <trkpt lat="46.0643" lon="6.13758">
        <ele>878</ele>
        <time>2021-03-17T18:56:03Z</time>
      </trkpt>
      <trkpt lat="46.06528" lon="6.1395">
        <ele>878</ele>
        <time>2021-03-17T18:56:34Z</time>
      </trkpt>
      <trkpt lat="46.06578" lon="6.14014">
        <ele>879</ele>
        <time>2021-03-17T18:56:46Z</time>
      </trkpt>
      <trkpt lat="46.06669" lon="6.14035">
        <ele>882</ele>
        <time>2021-03-17T18:57:02Z</time>
      </trkpt>
      <trkpt lat="46.06708" lon="6.14156">
        <ele>878</ele>
        <time>2021-03-17T18:57:20Z</time>
      </trkpt>
      <trkpt lat="46.06754" lon="6.14276">
        <ele>878</ele>
        <time>2021-03-17T18:57:37Z</time>
      </trkpt>
      <trkpt lat="46.0685" lon="6.1436">
        <ele>879</ele>
        <time>2021-03-17T18:57:57Z</time>
      </trkpt>
      <trkpt lat="46.06991" lon="6.14554">
        <ele>879</ele>
        <time>2021-03-17T18:58:32Z</time>
      </trkpt>
      <trkpt lat="46.07123" lon="6.14673">
        <ele>873</ele>
        <time>2021-03-17T18:58:59Z</time>
      </trkpt>
      <trkpt lat="46.07222" lon="6.14638">
        <ele>876</ele>
        <time>2021-03-17T18:59:18Z</time>
      </trkpt>
      <trkpt lat="46.07309" lon="6.14677">
        <ele>870</ele>
        <time>2021-03-17T18:59:34Z</time>
      </trkpt>
      <trkpt lat="46.07364" lon="6.14627">
        <ele>877</ele>
        <time>2021-03-17T18:59:46Z</time>
      </trkpt>
      <trkpt lat="46.07505" lon="6.14636">
        <ele>878</ele>
        <time>2021-03-17T19:00:11Z</time>
      </trkpt>
      <trkpt lat="46.07514" lon="6.14723">
        <ele>872</ele>
        <time>2021-03-17T19:00:23Z</time>
      </trkpt>
      <trkpt lat="46.07472" lon="6.14855">
        <ele>863</ele>
        <time>2021-03-17T19:00:41Z</time>
      </trkpt>
      <trkpt lat="46.07493" lon="6.15021">
        <ele>861</ele>
        <time>2021-03-17T19:01:02Z</time>
      </trkpt>
      <trkpt lat="46.07493" lon="6.15124">
        <ele>860</ele>
        <time>2021-03-17T19:01:15Z</time>
      </trkpt>
      <trkpt lat="46.07598" lon="6.15375">
        <ele>859</ele>
        <time>2021-03-17T19:01:51Z</time>
      </trkpt>
      <trkpt lat="46.07686" lon="6.15459">
        <ele>858</ele>
        <time>2021-03-17T19:02:10Z</time>
      </trkpt>
      <trkpt lat="46.07798" lon="6.15507">
        <ele>856</ele>
        <time>2021-03-17T19:02:31Z</time>
      </trkpt>
      <trkpt lat="46.08008" lon="6.15591">
        <ele>851</ele>
        <time>2021-03-17T19:03:10Z</time>
      </trkpt>
      <trkpt lat="46.08126" lon="6.1558">
        <ele>857</ele>
        <time>2021-03-17T19:03:32Z</time>
      </trkpt>
      <trkpt lat="46.08202" lon="6.15615">
        <ele>860</ele>
        <time>2021-03-17T19:03:46Z</time>
      </trkpt>
      <trkpt lat="46.08245" lon="6.15754">
        <ele>850</ele>
        <time>2021-03-17T19:04:05Z</time>
      </trkpt>
      <trkpt lat="46.08304" lon="6.15851">
        <ele>855</ele>
        <time>2021-03-17T19:04:21Z</time>
      </trkpt>
      <trkpt lat="46.08379" lon="6.15977">
        <ele>853</ele>
        <time>2021-03-17T19:04:42Z</time>
      </trkpt>
      <trkpt lat="46.08403" lon="6.16166">
        <ele>850</ele>
        <time>2021-03-17T19:05:06Z</time>
      </trkpt>
      <trkpt lat="46.08387" lon="6.16293">
        <ele>845</ele>
        <time>2021-03-17T19:05:22Z</time>
      </trkpt>
      <trkpt lat="46.08402" lon="6.16345">
        <ele>844</ele>
        <time>2021-03-17T19:05:29Z</time>
      </trkpt>
      <trkpt lat="46.08434" lon="6.1645">
        <ele>846</ele>
        <time>2021-03-17T19:05:44Z</time>
      </trkpt>
      <trkpt lat="46.08455" lon="6.16584">
        <ele>845</ele>
        <time>2021-03-17T19:06:02Z</time>
      </trkpt>
      <trkpt lat="46.08528" lon="6.16646">
        <ele>852</ele>
        <time>2021-03-17T19:06:17Z</time>
      </trkpt>
      <trkpt lat="46.08578" lon="6.16789">
        <ele>854</ele>
        <time>2021-03-17T19:06:37Z</time>
      </trkpt>
      <trkpt lat="46.08594" lon="6.16954">
        <ele>844</ele>
        <time>2021-03-17T19:06:58Z</time>
      </trkpt>
      <trkpt lat="46.08637" lon="6.17031">
        <ele>847</ele>
        <time>2021-03-17T19:07:10Z</time>
      </trkpt>
      <trkpt lat="46.08685" lon="6.17148">
        <ele>850</ele>
        <time>2021-03-17T19:07:27Z</time>
      </trkpt>
      <trkpt lat="46.08814" lon="6.17177">
        <ele>849</ele>
        <time>2021-03-17T19:07:50Z</time>
      </trkpt>
      <trkpt lat="46.08859" lon="6.17217">
        <ele>847</ele>
        <time>2021-03-17T19:08:00Z</time>
      </trkpt>
      <trkpt lat="46.08933" lon="6.17335">
        <ele>846</ele>
        <time>2021-03-17T19:08:20Z</time>
      </trkpt>
      <trkpt lat="46.09031" lon="6.17357">
        <ele>848</ele>
        <time>2021-03-17T19:08:38Z</time>
      </trkpt>
      <trkpt lat="46.09072" lon="6.17369">
        <ele>848</ele>
        <time>2021-03-17T19:08:46Z</time>
      </trkpt>
      <trkpt lat="46.09094" lon="6.17436">
        <ele>847</ele>
        <time>2021-03-17T19:08:55Z</time>
      </trkpt>
      <trkpt lat="46.09072" lon="6.1757">
        <ele>844</ele>
        <time>2021-03-17T19:09:12Z</time>
      </trkpt>
      <trkpt lat="46.09108" lon="6.17636">
        <ele>844</ele>
        <time>2021-03-17T19:09:23Z</time>
      </trkpt>
      <trkpt lat="46.09282" lon="6.17692">
        <ele>848</ele>
        <time>2021-03-17T19:09:55Z</time>
      </trkpt>
      <trkpt lat="46.09336" lon="6.17756">
        <ele>847</ele>
        <time>2021-03-17T19:10:08Z</time>
      </trkpt>
      <trkpt lat="46.09317" lon="6.17869">
        <ele>845</ele>
        <time>2021-03-17T19:10:22Z</time>
      </trkpt>
      <trkpt lat="46.09351" lon="6.18064">
        <ele>840</ele>
        <time>2021-03-17T19:10:47Z</time>
      </trkpt>
      <trkpt lat="46.09419" lon="6.18191">
        <ele>839</ele>
        <time>2021-03-17T19:11:07Z</time>
      </trkpt>
      <trkpt lat="46.09446" lon="6.18339">
        <ele>832</ele>
        <time>2021-03-17T19:11:26Z</time>
      </trkpt>
      <trkpt lat="46.09551" lon="6.18498">
        <ele>827</ele>
        <time>2021-03-17T19:11:54Z</time>
      </trkpt>
      <trkpt lat="46.09567" lon="6.18618">
        <ele>821</ele>
        <time>2021-03-17T19:12:09Z</time>
      </trkpt>
      <trkpt lat="46.09677" lon="6.18796">
        <ele>811</ele>
        <time>2021-03-17T19:12:38Z</time>
      </trkpt>
      <trkpt lat="46.09754" lon="6.18842">
        <ele>808</ele>
        <time>2021-03-17T19:12:53Z</time>
      </trkpt>
      <trkpt lat="46.09841" lon="6.18838">
        <ele>804</ele>
        <time>2021-03-17T19:13:09Z</time>
      </trkpt>
      <trkpt lat="46.09891" lon="6.18792">
        <ele>801</ele>
        <time>2021-03-17T19:13:20Z</time>
      </trkpt>
      <trkpt lat="46.09941" lon="6.18733">
        <ele>803</ele>
        <time>2021-03-17T19:13:32Z</time>
      </trkpt>
      <trkpt lat="46.09983" lon="6.1875">
        <ele>805</ele>
        <time>2021-03-17T19:13:40Z</time>
      </trkpt>
      <trkpt lat="46.10006" lon="6.1882">
        <ele>798</ele>
        <time>2021-03-17T19:13:50Z</time>
      </trkpt>
      <trkpt lat="46.10015" lon="6.18957">
        <ele>791</ele>
        <time>2021-03-17T19:14:07Z</time>
      </trkpt>
      <trkpt lat="46.10137" lon="6.19152">
        <ele>783</ele>
        <time>2021-03-17T19:14:40Z</time>
      </trkpt>
      <trkpt lat="46.10222" lon="6.19225">
        <ele>782</ele>
        <time>2021-03-17T19:14:58Z</time>
      </trkpt>
      <trkpt lat="46.10342" lon="6.19378">
        <ele>769</ele>
        <time>2021-03-17T19:15:26Z</time>
      </trkpt>
      <trkpt lat="46.10432" lon="6.19477">
        <ele>758</ele>
        <time>2021-03-17T19:15:46Z</time>
      </trkpt>
      <trkpt lat="46.10496" lon="6.19468">
        <ele>757</ele>
        <time>2021-03-17T19:15:58Z</time>
      </trkpt>
      <trkpt lat="46.10586" lon="6.19408">
        <ele>762</ele>
        <time>2021-03-17T19:16:16Z</time>
      </trkpt>
      <trkpt lat="46.1063" lon="6.19434">
        <ele>763</ele>
        <time>2021-03-17T19:16:25Z</time>
      </trkpt>
      <trkpt lat="46.10641" lon="6.1949">
        <ele>760</ele>
        <time>2021-03-17T19:16:32Z</time>
      </trkpt>
      <trkpt lat="46.10639" lon="6.19595">
        <ele>756</ele>
        <time>2021-03-17T19:16:46Z</time>
      </trkpt>
      <trkpt lat="46.10721" lon="6.19788">
        <ele>747</ele>
        <time>2021-03-17T19:17:14Z</time>
      </trkpt>
      <trkpt lat="46.10876" lon="6.19886">
        <ele>740</ele>
        <time>2021-03-17T19:17:46Z</time>
      </trkpt>
      <trkpt lat="46.10967" lon="6.1996">
        <ele>736</ele>
        <time>2021-03-17T19:18:04Z</time>
      </trkpt>
      <trkpt lat="46.11091" lon="6.20008">
        <ele>733</ele>
        <time>2021-03-17T19:18:27Z</time>
      </trkpt>
      <trkpt lat="46.11299" lon="6.20135">
        <ele>715</ele>
        <time>2021-03-17T19:19:08Z</time>
      </trkpt>
      <trkpt lat="46.11457" lon="6.2015">
        <ele>710</ele>
        <time>2021-03-17T19:19:36Z</time>
      </trkpt>
      <trkpt lat="46.11637" lon="6.20225">
        <ele>686</ele>
        <time>2021-03-17T19:20:10Z</time>
      </trkpt>
      <trkpt lat="46.11764" lon="6.20241">
        <ele>680</ele>
        <time>2021-03-17T19:20:32Z</time>
      </trkpt>
      <trkpt lat="46.11898" lon="6.20367">
        <ele>668</ele>
        <time>2021-03-17T19:21:01Z</time>
      </trkpt>
      <trkpt lat="46.12026" lon="6.20409">
        <ele>662</ele>
        <time>2021-03-17T19:21:24Z</time>
      </trkpt>
      <trkpt lat="46.12117" lon="6.20504">
        <ele>653</ele>
        <time>2021-03-17T19:21:45Z</time>
      </trkpt>
      <trkpt lat="46.12182" lon="6.20565">
        <ele>647</ele>
        <time>2021-03-17T19:21:59Z</time>
      </trkpt>
      <trkpt lat="46.12314" lon="6.20588">
        <ele>644</ele>
        <time>2021-03-17T19:22:23Z</time>
      </trkpt>
      <trkpt lat="46.12398" lon="6.20551">
        <ele>639</ele>
        <time>2021-03-17T19:22:39Z</time>
      </trkpt>
      <trkpt lat="46.12506" lon="6.20502">
        <ele>640</ele>
        <time>2021-03-17T19:22:59Z</time>
      </trkpt>
      <trkpt lat="46.12783" lon="6.20607">
        <ele>628</ele>
        <time>2021-03-17T19:23:51Z</time>
      </trkpt>
      <trkpt lat="46.12855" lon="6.20685">
        <ele>623</ele>
        <time>2021-03-17T19:24:07Z</time>
      </trkpt>
      <trkpt lat="46.13106" lon="6.20808">
        <ele>621</ele>
        <time>2021-03-17T19:24:54Z</time>
      </trkpt>
      <trkpt lat="46.13261" lon="6.21045">
        <ele>607</ele>
        <time>2021-03-17T19:25:35Z</time>
      </trkpt>
      <trkpt lat="46.13374" lon="6.21112">
        <ele>606</ele>
        <time>2021-03-17T19:25:57Z</time>
      </trkpt>
      <trkpt lat="46.13437" lon="6.21185">
        <ele>602</ele>
        <time>2021-03-17T19:26:11Z</time>
      </trkpt>
      <trkpt lat="46.13705" lon="6.21426">
        <ele>598</ele>
        <time>2021-03-17T19:27:08Z</time>
      </trkpt>
      <trkpt lat="46.13788" lon="6.21463">
        <ele>601</ele>
        <time>2021-03-17T19:27:24Z</time>
      </trkpt>
      <trkpt lat="46.13937" lon="6.21588">
        <ele>593</ele>
        <time>2021-03-17T19:27:54Z</time>
      </trkpt>
      <trkpt lat="46.14097" lon="6.21604">
        <ele>590</ele>
        <time>2021-03-17T19:28:23Z</time>
      </trkpt>
      <trkpt lat="46.14492" lon="6.21744">
        <ele>587</ele>
        <time>2021-03-17T19:29:36Z</time>
      </trkpt>
      <trkpt lat="46.14823" lon="6.21916">
        <ele>586</ele>
        <time>2021-03-17T19:30:38Z</time>
      </trkpt>
      <trkpt lat="46.14936" lon="6.21895">
        <ele>585</ele>
        <time>2021-03-17T19:30:59Z</time>
      </trkpt>
      <trkpt lat="46.14986" lon="6.21918">
        <ele>584</ele>
        <time>2021-03-17T19:31:08Z</time>
      </trkpt>
      <trkpt lat="46.15301" lon="6.22195">
        <ele>573</ele>
        <time>2021-03-17T19:32:14Z</time>
      </trkpt>
      <trkpt lat="46.1538" lon="6.22365">
        <ele>569</ele>
        <time>2021-03-17T19:32:40Z</time>
      </trkpt>
      <trkpt lat="46.15565" lon="6.2252">
        <ele>562</ele>
        <time>2021-03-17T19:33:18Z</time>
      </trkpt>
      <trkpt lat="46.1585" lon="6.22566">
        <ele>558</ele>
        <time>2021-03-17T19:34:10Z</time>
      </trkpt>
      <trkpt lat="46.15909" lon="6.22572">
        <ele>559</ele>
        <time>2021-03-17T19:34:20Z</time>
      </trkpt>
      <trkpt lat="46.16006" lon="6.22654">
        <ele>553</ele>
        <time>2021-03-17T19:34:40Z</time>
      </trkpt>
      <trkpt lat="46.16134" lon="6.22896">
        <ele>541</ele>
        <time>2021-03-17T19:35:19Z</time>
      </trkpt>
      <trkpt lat="46.16125" lon="6.2302">
        <ele>533</ele>
        <time>2021-03-17T19:35:34Z</time>
      </trkpt>
      <trkpt lat="46.16156" lon="6.23146">
        <ele>534</ele>
        <time>2021-03-17T19:35:51Z</time>
      </trkpt>
      <trkpt lat="46.16149" lon="6.23233">
        <ele>524</ele>
        <time>2021-03-17T19:36:02Z</time>
      </trkpt>
      <trkpt lat="46.16226" lon="6.23439">
        <ele>521</ele>
        <time>2021-03-17T19:36:31Z</time>
      </trkpt>
      <trkpt lat="46.16285" lon="6.23521">
        <ele>521</ele>
        <time>2021-03-17T19:36:46Z</time>
      </trkpt>
      <trkpt lat="46.16364" lon="6.23653">
        <ele>512</ele>
        <time>2021-03-17T19:37:08Z</time>
      </trkpt>
      <trkpt lat="46.16453" lon="6.237">
        <ele>510</ele>
        <time>2021-03-17T19:37:25Z</time>
      </trkpt>
      <trkpt lat="46.16626" lon="6.2384">
        <ele>495</ele>
        <time>2021-03-17T19:38:00Z</time>
      </trkpt>
      <trkpt lat="46.16782" lon="6.23859">
        <ele>489</ele>
        <time>2021-03-17T19:38:28Z</time>
      </trkpt>
      <trkpt lat="46.17143" lon="6.23862">
        <ele>465</ele>
        <time>2021-03-17T19:39:33Z</time>
      </trkpt>
      <trkpt lat="46.17475" lon="6.23661">
        <ele>438</ele>
        <time>2021-03-17T19:40:37Z</time>
      </trkpt>
      <trkpt lat="46.17575" lon="6.23588">
        <ele>435</ele>
        <time>2021-03-17T19:40:57Z</time>
      </trkpt>
      <trkpt lat="46.17691" lon="6.23507">
        <ele>426</ele>
        <time>2021-03-17T19:41:20Z</time>
      </trkpt>
      <trkpt lat="46.17744" lon="6.23495">
        <ele>419</ele>
        <time>2021-03-17T19:41:30Z</time>
      </trkpt>
      <trkpt lat="46.17862" lon="6.2337">
        <ele>419</ele>
        <time>2021-03-17T19:41:56Z</time>
      </trkpt>
      <trkpt lat="46.17917" lon="6.23251">
        <ele>417</ele>
        <time>2021-03-17T19:42:14Z</time>
      </trkpt>
      <trkpt lat="46.17977" lon="6.23118">
        <ele>412</ele>
        <time>2021-03-17T19:42:34Z</time>
      </trkpt>
      <trkpt lat="46.17991" lon="6.23056">
        <ele>411</ele>
        <time>2021-03-17T19:42:42Z</time>
      </trkpt>
      <trkpt lat="46.18076" lon="6.22971">
        <ele>405</ele>
        <time>2021-03-17T19:43:01Z</time>
      </trkpt>
      <trkpt lat="46.18255" lon="6.23038">
        <ele>403</ele>
        <time>2021-03-17T19:43:35Z</time>
      </trkpt>
      <trkpt lat="46.18387" lon="6.23094">
        <ele>407</ele>
        <time>2021-03-17T19:43:59Z</time>
      </trkpt>
      <trkpt lat="46.18493" lon="6.23045">
        <ele>412</ele>
        <time>2021-03-17T19:44:19Z</time>
      </trkpt>
      <trkpt lat="46.18555" lon="6.23049">
        <ele>416</ele>
        <time>2021-03-17T19:44:30Z</time>
      </trkpt>
      <trkpt lat="46.18654" lon="6.23159">
        <ele>418</ele>
        <time>2021-03-17T19:44:53Z</time>
      </trkpt>
      <trkpt lat="46.18725" lon="6.23221">
        <ele>420</ele>
        <time>2021-03-17T19:45:08Z</time>
      </trkpt>
      <trkpt lat="46.19004" lon="6.23327">
        <ele>435</ele>
        <time>2021-03-17T19:45:59Z</time>
      </trkpt>
      <trkpt lat="46.19031" lon="6.23321">
        <ele>435</ele>
        <time>2021-03-17T19:46:04Z</time>
      </trkpt>
      <trkpt lat="46.19026" lon="6.23297">
        <ele>434</ele>
        <time>2021-03-17T19:46:08Z</time>
      </trkpt>
      <trkpt lat="46.19007" lon="6.2332">
        <ele>435</ele>
        <time>2021-03-17T19:46:13Z</time>
      </trkpt>
    </trkseg>
  </trk>
</gpx>